createdAt,value
2018-09-22T00:00:02.569Z,1008.92
2018-09-22T00:01:01.166Z,1008.94
2018-09-22T00:01:59.918Z,1008.95
2018-09-22T00:04:40.301Z,1008.88
2018-09-22T00:05:38.990Z,1008.87
2018-09-22T00:08:19.484Z,1008.84
2018-09-22T00:09:18.156Z,1008.91
2018-09-22T00:10:16.702Z,1008.92
2018-09-22T00:11:15.385Z,1008.95
2018-09-22T00:12:14.300Z,1008.95
2018-09-22T00:13:12.651Z,1009
2018-09-22T00:14:11.215Z,1009.07
2018-09-22T00:15:09.877Z,1009.08
2018-09-22T00:16:08.547Z,1009.1
2018-09-22T00:17:07.371Z,1009.12
2018-09-22T00:18:05.838Z,1009.11
2018-09-22T00:19:04.384Z,1009.12
2018-09-22T00:20:03.092Z,1009.14
2018-09-22T00:21:01.755Z,1009.16
2018-09-22T00:22:00.586Z,1009.09
2018-09-22T00:22:59.060Z,1009.14
2018-09-22T00:23:57.750Z,1009.11
2018-09-22T00:24:56.418Z,1009.12
2018-09-22T00:25:54.987Z,1009.14
2018-09-22T00:26:53.648Z,1009.19
2018-09-22T00:27:52.481Z,1009.17
2018-09-22T00:28:51.271Z,1009.18
2018-09-22T00:29:49.906Z,1009.12
2018-09-22T00:33:28.673Z,1009.27
2018-09-22T00:34:27.480Z,1009.26
2018-09-22T00:35:26.167Z,1009.25
2018-09-22T00:36:24.774Z,1009.27
2018-09-22T00:37:23.391Z,1009.23
2018-09-22T00:40:03.910Z,1009.17
2018-09-22T00:41:02.489Z,1009.14
2018-09-22T00:42:01.112Z,1009.19
2018-09-22T00:42:59.798Z,1009.23
2018-09-22T00:43:58.294Z,1009.28
2018-09-22T00:44:56.962Z,1009.32
2018-09-22T00:45:55.541Z,1009.36
2018-09-22T00:46:54.439Z,1009.38
2018-09-22T00:47:53.202Z,1009.41
2018-09-22T00:48:52.828Z,1009.45
2018-09-22T00:49:51.355Z,1009.42
2018-09-22T00:50:49.961Z,1009.48
2018-09-22T00:53:30.381Z,1009.48
2018-09-22T00:54:28.993Z,1009.47
2018-09-22T00:55:27.661Z,1009.5
2018-09-22T00:56:26.358Z,1009.49
2018-09-22T00:57:24.872Z,1009.49
2018-09-22T00:58:23.505Z,1009.5
2018-09-22T01:00:46.347Z,1009.54
2018-09-22T01:01:44.830Z,1009.57
2018-09-22T01:02:43.506Z,1009.59
2018-09-22T01:05:23.616Z,1009.63
2018-09-22T01:06:22.349Z,1009.65
2018-09-22T01:07:20.985Z,1009.64
2018-09-22T01:08:19.501Z,1009.61
2018-09-22T01:10:59.872Z,1009.55
2018-09-22T01:11:58.481Z,1009.6
2018-09-22T01:12:57.358Z,1009.67
2018-09-22T01:13:55.854Z,1009.71
2018-09-22T01:14:54.457Z,1009.74
2018-09-22T01:33:45.422Z,1009.67
2018-09-22T01:34:44.103Z,1009.75
2018-09-22T01:35:42.650Z,1009.77
2018-09-22T01:36:41.231Z,1009.79
2018-09-22T01:37:40.011Z,1009.81
2018-09-22T01:40:20.299Z,1009.83
2018-09-22T01:41:18.950Z,1009.76
2018-09-22T01:42:17.479Z,1009.75
2018-09-22T01:43:16.300Z,1009.68
2018-09-22T01:45:56.703Z,1009.69
2018-09-22T01:46:55.207Z,1009.72
2018-09-22T01:47:53.809Z,1009.73
2018-09-22T01:48:52.641Z,1009.69
2018-09-22T01:49:51.167Z,1009.7
2018-09-22T01:50:49.849Z,1009.73
2018-09-22T01:51:48.564Z,1009.81
2018-09-22T01:52:47.269Z,1009.79
2018-09-22T01:53:46.149Z,1009.81
2018-09-22T01:54:44.651Z,1009.77
2018-09-22T01:55:43.367Z,1009.73
2018-09-22T01:56:41.939Z,1009.77
2018-09-22T01:57:40.638Z,1009.77
2018-09-22T01:58:39.517Z,1009.75
2018-09-22T02:01:19.602Z,1009.74
2018-09-22T02:04:00.073Z,1009.59
2018-09-22T02:04:58.895Z,1009.61
2018-09-22T02:05:57.486Z,1009.51
2018-09-22T02:06:56.308Z,1009.56
2018-09-22T02:07:54.978Z,1009.58
2018-09-22T02:08:53.875Z,1009.58
2018-09-22T02:09:52.409Z,1009.6
2018-09-22T02:10:51.060Z,1009.57
2018-09-22T02:13:31.086Z,1009.55
2018-09-22T02:14:29.849Z,1009.5
2018-09-22T02:15:28.443Z,1009.49
2018-09-22T02:16:27.183Z,1009.44
2018-09-22T02:19:07.378Z,1009.44
2018-09-22T02:20:06.221Z,1009.57
2018-09-22T02:21:04.897Z,1009.58
2018-09-22T02:22:03.393Z,1009.63
2018-09-22T02:23:02.018Z,1009.71
2018-09-22T02:24:00.795Z,1009.7
2018-09-22T02:24:59.330Z,1009.67
2018-09-22T02:25:57.935Z,1009.69
2018-09-22T02:26:56.651Z,1009.69
2018-09-22T02:27:55.251Z,1009.65
2018-09-22T02:28:53.957Z,1009.64
2018-09-22T02:29:52.786Z,1009.71
2018-09-22T02:32:33.177Z,1009.74
2018-09-22T02:33:31.954Z,1009.78
2018-09-22T02:34:30.703Z,1009.79
2018-09-22T02:37:10.843Z,1009.91
2018-09-22T02:38:09.682Z,1009.88
2018-09-22T02:39:08.335Z,1009.82
2018-09-22T02:40:07.294Z,1009.76
2018-09-22T02:41:06.007Z,1009.72
2018-09-22T02:42:04.708Z,1009.72
2018-09-22T03:02:40.771Z,1009.96
2018-09-22T03:03:39.427Z,1009.92
2018-09-22T03:06:19.606Z,1009.91
2018-09-22T03:07:18.465Z,1009.98
2018-09-22T03:08:17.029Z,1009.95
2018-09-22T03:09:15.664Z,1010
2018-09-22T03:10:14.200Z,1010
2018-09-22T03:11:13.156Z,1010.01
2018-09-22T03:13:53.473Z,1010.04
2018-09-22T03:16:57.795Z,1010.04
2018-09-22T03:20:13.629Z,1010.15
2018-09-22T03:27:02.702Z,1010.34
2018-09-22T03:32:00.766Z,1010.33
2018-09-22T03:32:59.649Z,1010.38
2018-09-22T03:33:58.255Z,1010.37
2018-09-22T03:34:56.947Z,1010.36
2018-09-22T03:35:55.514Z,1010.36
2018-09-22T03:36:54.169Z,1010.31
2018-09-22T03:37:52.783Z,1010.3
2018-09-22T03:38:51.344Z,1010.29
2018-09-22T03:39:50.262Z,1010.36
2018-09-22T03:40:48.927Z,1010.33
2018-09-22T03:41:49.842Z,1010.3
2018-09-22T03:42:48.679Z,1010.28
2018-09-22T03:45:29.097Z,1010.24
2018-09-22T03:46:27.727Z,1010.23
2018-09-22T03:47:26.522Z,1010.24
2018-09-22T03:48:25.182Z,1010.16
2018-09-22T03:49:23.782Z,1010.13
2018-09-22T03:50:22.444Z,1010.11
2018-09-22T03:51:20.966Z,1010.03
2018-09-22T03:52:19.748Z,1010.01
2018-09-22T03:53:18.569Z,1009.97
2018-09-22T03:54:17.337Z,1009.93
2018-09-22T03:55:15.917Z,1009.98
2018-09-22T03:56:14.817Z,1010.02
2018-09-22T03:57:13.431Z,1010.04
2018-09-22T03:58:12.328Z,1010.04
2018-09-22T03:59:10.923Z,1009.98
2018-09-22T04:00:09.622Z,1010.05
2018-09-22T04:01:08.369Z,1010.03
2018-09-22T04:02:07.013Z,1009.98
2018-09-22T04:03:05.660Z,1010.02
2018-09-22T04:04:04.309Z,1010.01
2018-09-22T04:05:02.896Z,1010.03
2018-09-22T04:06:01.549Z,1010.04
2018-09-22T04:07:00.820Z,1010.03
2018-09-22T04:07:59.402Z,1009.99
2018-09-22T04:08:58.184Z,1009.97
2018-09-22T04:09:56.789Z,1010.01
2018-09-22T04:10:55.308Z,1010
2018-09-22T04:11:54.033Z,1010
2018-09-22T04:12:52.935Z,1009.99
2018-09-22T04:13:51.469Z,1009.98
2018-09-22T04:14:50.078Z,1009.98
2018-09-22T04:15:48.709Z,1009.93
2018-09-22T04:16:47.275Z,1009.94
2018-09-22T04:17:45.891Z,1009.92
2018-09-22T04:18:44.520Z,1009.91
2018-09-22T04:19:43.129Z,1009.95
2018-09-22T04:20:41.734Z,1009.99
2018-09-22T04:21:40.335Z,1010.01
2018-09-22T04:24:20.483Z,1010.05
2018-09-22T04:25:19.272Z,1010.12
2018-09-22T04:26:17.718Z,1010.1
2018-09-22T04:27:16.312Z,1010.12
2018-09-22T04:28:14.851Z,1010.14
2018-09-22T04:29:13.796Z,1010.18
2018-09-22T04:30:12.388Z,1010.23
2018-09-22T04:31:10.989Z,1010.26
2018-09-22T04:32:09.740Z,1010.31
2018-09-22T04:33:08.420Z,1010.31
2018-09-22T04:34:07.078Z,1010.33
2018-09-22T04:35:05.545Z,1010.36
2018-09-22T04:36:04.315Z,1010.38
2018-09-22T04:37:02.928Z,1010.36
2018-09-22T04:38:01.481Z,1010.36
2018-09-22T04:39:00.239Z,1010.35
2018-09-22T04:39:58.854Z,1010.3
2018-09-22T04:42:38.980Z,1010.31
2018-09-22T04:46:00.517Z,1010.33
2018-09-22T04:46:59.102Z,1010.29
2018-09-22T04:47:57.781Z,1010.3
2018-09-22T04:48:56.371Z,1010.29
2018-09-22T04:49:54.977Z,1010.31
2018-09-22T04:50:53.584Z,1010.33
2018-09-22T04:51:52.300Z,1010.29
2018-09-22T04:52:50.931Z,1010.3
2018-09-22T04:53:49.496Z,1010.24
2018-09-22T04:54:48.289Z,1010.28
2018-09-22T04:55:47.038Z,1010.28
2018-09-22T04:58:27.496Z,1010.35
2018-09-22T04:59:26.244Z,1010.33
2018-09-22T05:00:24.967Z,1010.31
2018-09-22T05:03:05.620Z,1010.34
2018-09-22T05:08:26.758Z,1010.34
2018-09-22T05:09:26.220Z,1010.34
2018-09-22T05:10:26.098Z,1010.33
2018-09-22T05:11:24.904Z,1010.36
2018-09-22T05:13:48.669Z,1010.37
2018-09-22T05:16:31.837Z,1010.37
2018-09-22T05:17:30.838Z,1010.4
2018-09-22T05:19:39.643Z,1010.44
2018-09-22T05:20:39.278Z,1010.5
2018-09-22T05:21:38.964Z,1010.53
2018-09-22T05:22:37.940Z,1010.53
2018-09-22T05:25:22.851Z,1010.61
2018-09-22T05:26:21.504Z,1010.64
2018-09-22T05:27:20.976Z,1010.64
2018-09-22T05:30:02.969Z,1010.66
2018-09-22T05:32:43.731Z,1010.71
2018-09-22T05:33:42.430Z,1010.72
2018-09-22T05:36:27.881Z,1010.78
2018-09-22T05:40:54.269Z,1010.78
2018-09-22T05:41:53.309Z,1010.79
2018-09-22T05:48:56.159Z,1010.81
2018-09-22T05:51:41.034Z,1010.74
2018-09-22T05:56:02.856Z,1010.7
2018-09-22T05:57:01.624Z,1010.75
2018-09-22T05:59:42.705Z,1010.69
2018-09-22T06:04:01.653Z,1010.73
2018-09-22T06:12:21.264Z,1010.85
2018-09-22T06:13:20.495Z,1010.93
2018-09-22T06:14:20.705Z,1010.88
2018-09-22T06:15:19.094Z,1010.91
2018-09-22T06:16:18.514Z,1010.94
2018-09-22T06:17:18.262Z,1011.01
2018-09-22T06:18:16.576Z,1010.98
2018-09-22T06:20:30.349Z,1011.08
2018-09-22T06:24:22.301Z,1011.19
2018-09-22T06:25:22.759Z,1011.23
2018-09-22T06:26:21.611Z,1011.19
2018-09-22T06:27:20.433Z,1011.22
2018-09-22T06:28:22.734Z,1011.22
2018-09-22T06:29:21.300Z,1011.19
2018-09-22T06:30:25.762Z,1011.12
2018-09-22T06:31:27.449Z,1011.17
2018-09-22T06:32:29.329Z,1011.18
2018-09-22T06:33:33.318Z,1011.17
2018-09-22T06:34:32.042Z,1011.18
2018-09-22T06:38:54.600Z,1011.17
2018-09-22T06:39:53.831Z,1011.16
2018-09-22T06:44:16.150Z,1011.2
2018-09-22T06:45:15.273Z,1011.31
2018-09-22T06:46:18.578Z,1011.29
2018-09-22T06:47:17.077Z,1011.31
2018-09-22T06:49:57.207Z,1011.49
2018-09-22T06:52:39.492Z,1011.49
2018-09-22T06:53:38.836Z,1011.49
2018-09-22T06:56:18.016Z,1011.52
2018-09-22T07:16:11.996Z,1011.47
2018-09-22T07:19:56.984Z,1011.27
2018-09-22T07:20:56.261Z,1011.27
2018-09-22T07:21:55.683Z,1011.28
2018-09-22T07:22:54.622Z,1011.31
2018-09-22T07:23:54.780Z,1011.36
2018-09-22T07:26:35.438Z,1011.35
2018-09-22T07:27:34.339Z,1011.31
2018-09-22T07:28:33.291Z,1011.31
2018-09-22T07:29:32.661Z,1011.32
2018-09-22T07:30:31.745Z,1011.3
2018-09-22T07:33:10.184Z,1011.36
2018-09-22T07:36:35.269Z,1011.27
2018-09-22T07:39:12.339Z,1011.21
2018-09-22T07:42:16.300Z,1011.25
2018-09-22T07:44:34.084Z,1011.18
2018-09-22T07:45:35.310Z,1011.2
2018-09-22T07:49:18.763Z,1011.07
2018-09-22T07:50:17.229Z,1011.03
2018-09-22T07:51:16.432Z,1011.06
2018-09-22T07:52:16.639Z,1011.06
2018-09-22T07:56:40.145Z,1011
2018-09-22T07:57:38.688Z,1011.03
2018-09-22T07:58:37.793Z,1011.07
2018-09-22T07:59:36.991Z,1011.06
2018-09-22T08:02:17.672Z,1011.13
2018-09-22T08:13:30.960Z,1011.14
2018-09-22T08:14:23.839Z,1011.13
2018-09-22T08:15:22.741Z,1011.13
2018-09-22T08:16:22.003Z,1011.12
2018-09-22T08:19:02.603Z,1011.1
2018-09-22T08:20:01.309Z,1011.11
2018-09-22T08:22:41.601Z,1011.16
2018-09-22T08:23:40.554Z,1011.17
2018-09-22T08:24:39.377Z,1011.19
2018-09-22T08:25:38.183Z,1011.19
2018-09-22T08:26:37.546Z,1011.16
2018-09-22T08:30:17.932Z,1011.25
2018-09-22T08:31:17.776Z,1011.26
2018-09-22T08:32:16.666Z,1011.26
2018-09-22T08:33:15.710Z,1011.25
2018-09-22T08:34:15.007Z,1011.26
2018-09-22T08:35:14.037Z,1011.23
2018-09-22T08:37:54.588Z,1011.27
2018-09-22T08:38:53.402Z,1011.26
2018-09-22T08:39:52.225Z,1011.29
2018-09-22T08:40:50.876Z,1011.29
2018-09-22T08:44:31.365Z,1011.35
2018-09-22T08:47:12.278Z,1011.29
2018-09-22T08:52:40.851Z,1011.26
2018-09-22T09:07:55.015Z,1011.49
2018-09-22T09:10:23.223Z,1011.55
2018-09-22T09:13:02.648Z,1011.51
2018-09-22T09:14:37.130Z,1011.48
2018-09-22T09:17:29.535Z,1011.48
2018-09-22T09:18:28.767Z,1011.51
2018-09-22T09:21:11.213Z,1011.49
2018-09-22T09:23:52.046Z,1011.57
2018-09-22T09:26:32.879Z,1011.52
2018-09-22T09:28:11.457Z,1011.48
2018-09-22T09:29:10.675Z,1011.46
2018-09-22T09:30:09.740Z,1011.47
2018-09-22T09:48:32.500Z,1010.96
2018-09-22T09:49:30.559Z,1010.87
2018-09-22T09:50:29.528Z,1010.87
2018-09-22T09:51:28.082Z,1010.87
2018-09-22T09:52:27.113Z,1010.8
2018-09-22T09:53:26.020Z,1010.83
2018-09-22T09:54:25.610Z,1010.9
2018-09-22T09:55:24.478Z,1010.82
2018-09-22T09:56:23.467Z,1010.81
2018-09-22T09:57:22.244Z,1010.87
2018-09-22T09:58:22.007Z,1010.83
2018-09-22T10:00:45.300Z,1010.78
2018-09-22T10:01:44.761Z,1010.78
2018-09-22T10:02:43.266Z,1010.84
2018-09-22T10:03:43.845Z,1010.82
2018-09-22T10:04:43.247Z,1010.77
2018-09-22T10:05:42.210Z,1010.8
2018-09-22T10:06:41.166Z,1010.76
2018-09-22T10:07:40.408Z,1010.75
2018-09-22T10:08:39.604Z,1010.81
2018-09-22T10:09:38.629Z,1010.77
2018-09-22T10:10:38.716Z,1010.79
2018-09-22T10:11:39.219Z,1010.73
2018-09-22T10:12:38.773Z,1010.69
2018-09-22T10:13:37.273Z,1010.65
2018-09-22T10:14:35.818Z,1010.62
2018-09-22T10:15:34.738Z,1010.6
2018-09-22T10:16:33.658Z,1010.62
2018-09-22T10:56:08.232Z,1010.35
2018-09-22T10:57:10.020Z,1010.32
2018-09-22T10:58:11.925Z,1010.33
2018-09-22T10:59:11.161Z,1010.36
2018-09-22T11:00:11.688Z,1010.36
2018-09-22T11:01:10.300Z,1010.35
2018-09-22T11:02:09.137Z,1010.33
2018-09-22T11:03:07.885Z,1010.32
2018-09-22T11:04:07.106Z,1010.3
2018-09-22T11:05:06.165Z,1010.26
2018-09-22T11:06:05.054Z,1010.19
2018-09-22T11:07:03.900Z,1010.26
2018-09-22T11:08:02.685Z,1010.16
2018-09-22T11:09:01.377Z,1010.15
2018-09-22T11:10:00.518Z,1010.16
2018-09-22T11:10:59.379Z,1010.13
2018-09-22T11:11:58.071Z,1010.16
2018-09-22T11:12:56.861Z,1010.16
2018-09-22T11:13:55.485Z,1010.19
2018-09-22T11:14:54.175Z,1010.13
2018-09-22T11:15:53.204Z,1010.2
2018-09-22T11:16:52.116Z,1010.21
2018-09-22T11:17:51.096Z,1010.16
2018-09-22T11:18:49.664Z,1010.19
2018-09-22T11:19:48.626Z,1010.14
2018-09-22T11:20:47.529Z,1010.12
2018-09-22T11:21:46.683Z,1010.03
2018-09-22T11:22:45.370Z,1010
2018-09-22T11:23:44.617Z,1009.95
2018-09-22T11:24:45.621Z,1009.9
2018-09-22T11:25:44.459Z,1009.82
2018-09-22T11:26:44.151Z,1009.78
2018-09-22T11:27:43.092Z,1009.82
2018-09-22T11:28:41.703Z,1009.83
2018-09-22T11:29:43.497Z,1009.88
2018-09-22T11:30:41.858Z,1009.87
2018-09-22T11:31:41.092Z,1009.9
2018-09-22T11:32:40.304Z,1009.95
2018-09-22T11:33:39.048Z,1009.99
2018-09-22T11:34:37.804Z,1010.01
2018-09-22T11:35:37.378Z,1009.95
2018-09-22T11:36:36.224Z,1009.89
2018-09-22T11:37:37.407Z,1009.82
2018-09-22T11:38:37.756Z,1009.78
2018-09-22T11:39:37.736Z,1009.71
2018-09-22T11:40:36.406Z,1009.71
2018-09-22T11:41:36.006Z,1009.78
2018-09-22T11:42:34.968Z,1009.82
2018-09-22T11:43:33.756Z,1009.83
2018-09-22T11:44:32.958Z,1009.86
2018-09-22T11:45:31.897Z,1009.87
2018-09-22T11:46:30.952Z,1009.93
2018-09-22T11:47:30.752Z,1009.91
2018-09-22T11:48:29.635Z,1009.94
2018-09-22T11:49:28.630Z,1009.95
2018-09-22T11:50:27.539Z,1009.96
2018-09-22T11:51:26.503Z,1009.88
2018-09-22T11:52:25.510Z,1009.95
2018-09-22T11:53:24.130Z,1009.93
2018-09-22T11:54:23.273Z,1009.89
2018-09-22T11:55:21.893Z,1009.89
2018-09-22T11:56:20.692Z,1009.85
2018-09-22T11:57:20.582Z,1009.75
2018-09-22T11:58:19.014Z,1009.69
2018-09-22T11:59:18.187Z,1009.73
2018-09-22T12:00:16.873Z,1009.69
2018-09-22T12:01:16.511Z,1009.69
2018-09-22T12:02:15.854Z,1009.7
2018-09-22T12:03:14.863Z,1009.78
2018-09-22T12:04:13.629Z,1009.76
2018-09-22T12:05:12.652Z,1009.79
2018-09-22T12:06:11.568Z,1009.76
2018-09-22T12:07:10.583Z,1009.74
2018-09-22T12:08:09.571Z,1009.72
2018-09-22T12:09:08.961Z,1009.63
2018-09-22T12:10:07.820Z,1009.62
2018-09-22T12:11:06.904Z,1009.62
2018-09-22T12:12:05.517Z,1009.59
2018-09-22T12:13:04.730Z,1009.69
2018-09-22T12:14:03.507Z,1009.69
2018-09-22T12:15:02.228Z,1009.7
2018-09-22T12:16:01.192Z,1009.68
2018-09-22T12:16:59.842Z,1009.67
2018-09-22T12:17:58.517Z,1009.6
2018-09-22T12:18:57.559Z,1009.57
2018-09-22T12:19:56.332Z,1009.52
2018-09-22T12:20:55.548Z,1009.53
2018-09-22T12:21:54.372Z,1009.47
2018-09-22T12:22:53.696Z,1009.51
2018-09-22T12:23:53.093Z,1009.45
2018-09-22T12:24:52.493Z,1009.44
2018-09-22T12:25:52.153Z,1009.49
2018-09-22T12:26:51.469Z,1009.41
2018-09-22T12:27:50.507Z,1009.39
2018-09-22T12:28:49.665Z,1009.34
2018-09-22T12:29:48.157Z,1009.31
2018-09-22T12:30:46.990Z,1009.24
2018-09-22T12:31:46.005Z,1009.23
2018-09-22T12:32:46.439Z,1009.29
2018-09-22T12:33:45.125Z,1009.27
2018-09-22T16:34:09.423Z,1007.13
2018-09-22T16:36:51.492Z,1007.14
2018-09-22T16:39:32.255Z,1007.18
2018-09-22T16:44:57.196Z,1007.18
2018-09-22T16:58:29.600Z,1007.41
2018-09-22T16:59:28.682Z,1007.39
2018-09-22T17:00:32.197Z,1007.41
2018-09-22T17:01:35.614Z,1007.4
2018-09-22T17:02:35.577Z,1007.4
2018-09-22T17:08:36.204Z,1007.38
2018-09-22T17:09:38.937Z,1007.44
2018-09-22T17:10:38.717Z,1007.46
2018-09-22T17:13:19.108Z,1007.48
2018-09-22T17:15:59.521Z,1007.51
2018-09-22T17:16:58.484Z,1007.53
2018-09-22T17:30:48.337Z,1007.5
2018-09-22T17:31:48.762Z,1007.53
2018-09-22T17:32:48.411Z,1007.54
2018-09-22T17:35:29.133Z,1007.42
2018-09-22T17:36:27.851Z,1007.41
2018-09-22T17:37:26.982Z,1007.37
2018-09-22T17:38:25.803Z,1007.4
2018-09-22T17:39:24.602Z,1007.35
2018-09-22T17:40:23.583Z,1007.33
2018-09-22T17:41:22.274Z,1007.35
2018-09-22T17:42:21.222Z,1007.28
2018-09-22T17:45:01.432Z,1007.35
2018-09-22T17:46:00.193Z,1007.33
2018-09-22T17:48:40.339Z,1007.27
2018-09-22T17:49:39.121Z,1007.25
2018-09-22T17:52:19.696Z,1007.4
2018-09-22T17:55:00.041Z,1007.4
2018-09-22T17:55:59.038Z,1007.41
2018-09-22T17:56:57.976Z,1007.37
2018-09-22T17:57:59.159Z,1007.3
2018-09-22T18:03:22.009Z,1007.27
2018-09-22T18:04:21.501Z,1007.28
2018-09-22T18:07:02.704Z,1007.22
2018-09-22T18:08:01.957Z,1007.23
2018-09-22T18:09:01.056Z,1007.23
2018-09-22T18:10:03.269Z,1007.26
2018-09-22T18:11:02.324Z,1007.26
2018-09-22T18:12:02.265Z,1007.3
2018-09-22T18:13:00.543Z,1007.25
2018-09-22T18:13:59.575Z,1007.26
2018-09-22T18:14:58.756Z,1007.27
2018-09-22T18:15:57.544Z,1007.27
2018-09-22T18:16:56.484Z,1007.29
2018-09-22T18:17:55.420Z,1007.29
2018-09-22T18:18:54.823Z,1007.28
2018-09-22T18:19:53.856Z,1007.3
2018-09-22T18:20:52.963Z,1007.31
2018-09-22T18:23:33.555Z,1007.24
2018-09-22T18:24:34.390Z,1007.2
2018-09-22T18:28:12.800Z,1007.26
2018-09-22T18:32:39.744Z,1007.22
2018-09-22T18:37:08.299Z,1007.3
2018-09-22T18:38:14.374Z,1007.33
2018-09-22T18:39:13.987Z,1007.42
2018-09-22T18:40:11.632Z,1007.44
2018-09-22T18:44:47.534Z,1007.45
2018-09-22T18:45:47.307Z,1007.38
2018-09-22T18:51:08.751Z,1007.49
2018-09-22T18:52:11.230Z,1007.46
2018-09-22T18:53:10.175Z,1007.35
2018-09-22T18:59:20.896Z,1007.2
2018-09-22T19:04:49.666Z,1007.12
2018-09-22T19:38:35.813Z,1007.22
2018-09-22T19:41:12.361Z,1007.16
2018-09-22T19:42:11.500Z,1007.18
2018-09-22T19:43:10.841Z,1007.19
2018-09-22T19:44:09.537Z,1007.23
2018-09-22T19:45:08.389Z,1007.26
2018-09-22T19:46:07.537Z,1007.2
2018-09-22T19:47:06.324Z,1007.19
2018-09-22T19:52:14.278Z,1007.12
2018-09-22T20:09:16.289Z,1007.09
2018-09-22T20:13:39.934Z,1007.11
2018-09-22T20:14:38.622Z,1007.1
2018-09-22T20:15:37.743Z,1007.11
2018-09-22T20:16:36.862Z,1007.1
2018-09-22T20:19:00.150Z,1007.07
2018-09-22T20:19:59.183Z,1007.1
2018-09-22T20:20:57.958Z,1007.13
2018-09-22T20:21:56.774Z,1007.16
2018-09-22T20:22:56.078Z,1007.21
2018-09-22T20:23:55.053Z,1007.2
2018-09-22T20:26:35.905Z,1007.21
2018-09-22T20:27:35.136Z,1007.23
2018-09-22T20:28:34.418Z,1007.24
2018-09-22T20:29:33.468Z,1007.21
2018-09-22T20:30:32.201Z,1007.19
2018-09-22T20:31:33.343Z,1007.18
2018-09-22T20:32:32.776Z,1007.18
2018-09-22T20:33:31.438Z,1007.09
2018-09-22T20:38:35.423Z,1007.11
2018-09-22T20:39:33.978Z,1007.08
2018-09-22T20:40:32.993Z,1007.14
2018-09-22T20:41:31.812Z,1007.14
2018-09-22T20:42:30.762Z,1007.11
2018-09-22T20:43:29.704Z,1007.17
2018-09-22T20:44:29.331Z,1007.16
2018-09-22T20:45:28.053Z,1007.19
2018-09-22T20:46:27.063Z,1007.17
2018-09-22T20:47:27.006Z,1007.15
2018-09-22T20:48:26.043Z,1007.14
2018-09-22T20:49:25.132Z,1007.09
2018-09-22T20:50:24.233Z,1007.09
2018-09-22T20:53:04.274Z,1007.11
2018-09-22T20:54:03.018Z,1007.18
2018-09-22T20:55:02.207Z,1007.19
2018-09-22T20:56:01.144Z,1007.15
2018-09-22T20:56:59.954Z,1007.18
2018-09-22T21:00:55.537Z,1007.09
2018-09-22T21:18:50.578Z,1006.99
2018-09-22T21:19:54.996Z,1006.96
2018-09-22T21:20:53.881Z,1006.95
2018-09-22T21:21:52.495Z,1006.93
2018-09-22T21:22:51.462Z,1006.92
2018-09-22T21:23:50.038Z,1006.91
2018-09-22T21:24:48.582Z,1006.93
2018-09-22T21:25:47.536Z,1006.88
2018-09-22T21:26:46.277Z,1006.83
2018-09-22T21:27:45.155Z,1006.83
2018-09-22T21:28:44.039Z,1006.87
2018-09-22T21:29:42.961Z,1006.87
2018-09-22T21:30:41.750Z,1006.91
2018-09-22T21:31:40.523Z,1006.84
2018-09-22T21:32:40.287Z,1006.87
2018-09-22T21:33:39.229Z,1006.83
2018-09-22T21:34:37.666Z,1006.83
2018-09-22T21:35:36.405Z,1006.82
2018-09-22T21:36:35.447Z,1006.78
2018-09-22T21:37:34.098Z,1006.86
2018-09-22T21:38:32.841Z,1006.86
2018-09-22T21:39:31.555Z,1006.84
2018-09-22T21:40:40.243Z,1006.89
2018-09-22T21:41:41.243Z,1006.86
2018-09-22T21:42:43.221Z,1006.92
2018-09-22T21:43:44.060Z,1006.92
2018-09-22T21:44:45.214Z,1006.94
2018-09-22T21:45:47.393Z,1006.95
2018-09-22T21:46:45.964Z,1006.98
2018-09-22T21:47:44.939Z,1006.95
2018-09-22T21:48:43.916Z,1006.9
2018-09-22T21:49:42.808Z,1006.89
2018-09-22T21:50:41.629Z,1006.9
2018-09-22T21:51:40.898Z,1006.86
2018-09-22T21:52:39.939Z,1006.91
2018-09-22T21:53:38.694Z,1006.85
2018-09-22T21:54:39.587Z,1006.81
2018-09-22T21:55:37.923Z,1006.74
2018-09-22T21:56:36.778Z,1006.79
2018-09-22T21:57:35.817Z,1006.72
2018-09-22T21:58:34.576Z,1006.71
2018-09-22T21:59:33.705Z,1006.69
2018-09-22T22:01:56.581Z,1006.75
2018-09-22T22:02:55.466Z,1006.72
2018-09-22T22:03:54.181Z,1006.73
2018-09-22T22:04:53.218Z,1006.74
2018-09-22T22:05:51.912Z,1006.72
2018-09-22T22:06:50.940Z,1006.73
2018-09-22T22:07:49.650Z,1006.73
2018-09-22T22:08:48.643Z,1006.69
2018-09-22T22:09:47.561Z,1006.68
2018-09-22T22:10:46.196Z,1006.75
2018-09-22T22:11:44.911Z,1006.77
2018-09-22T22:12:43.867Z,1006.81
2018-09-22T22:13:42.704Z,1006.81
2018-09-22T22:14:41.560Z,1006.85
2018-09-22T22:15:40.185Z,1006.85
2018-09-22T22:16:39.019Z,1006.88
2018-09-22T22:17:37.797Z,1006.83
2018-09-22T22:18:37.357Z,1006.82
2018-09-22T22:30:16.675Z,1006.74
2018-09-22T22:31:15.515Z,1006.74
2018-09-22T22:32:14.197Z,1006.74
2018-09-22T22:33:12.901Z,1006.71
2018-09-22T22:34:11.755Z,1006.69
2018-09-22T22:35:10.467Z,1006.66
2018-09-22T22:36:09.022Z,1006.61
2018-09-22T22:37:07.736Z,1006.62
2018-09-22T22:38:06.587Z,1006.61
2018-09-22T22:39:05.569Z,1006.65
2018-09-22T22:40:04.672Z,1006.66
2018-09-22T22:41:03.295Z,1006.62
2018-09-22T22:42:02.501Z,1006.7
2018-09-22T22:43:01.405Z,1006.65
2018-09-22T22:43:59.856Z,1006.63
2018-09-22T22:44:58.740Z,1006.6
2018-09-22T22:45:57.398Z,1006.66
2018-09-22T22:46:56.085Z,1006.74
2018-09-22T22:47:54.804Z,1006.69
2018-09-22T22:48:53.967Z,1006.7
2018-09-22T22:49:52.835Z,1006.6
2018-09-22T22:50:51.852Z,1006.61
2018-09-22T22:51:50.717Z,1006.64
2018-09-22T22:52:49.432Z,1006.56
2018-09-22T22:53:48.069Z,1006.6
2018-09-22T22:54:46.847Z,1006.59
2018-09-22T22:55:45.706Z,1006.6
2018-09-22T22:56:44.759Z,1006.55
2018-09-22T22:57:43.360Z,1006.56
2018-09-22T22:58:42.085Z,1006.57
2018-09-22T22:59:41.115Z,1006.58
2018-09-22T23:00:39.995Z,1006.52
2018-09-22T23:03:49.129Z,1006.49
2018-09-22T23:06:26.855Z,1006.44
2018-09-22T23:15:13.219Z,1006.38
2018-09-22T23:16:12.048Z,1006.43
2018-09-22T23:27:49.754Z,1006.34
2018-09-22T23:33:14.857Z,1006.38
2018-09-22T23:37:38.193Z,1006.47
2018-09-22T23:40:25.459Z,1006.47
2018-09-22T23:41:25.035Z,1006.47
2018-09-22T23:45:47.837Z,1006.4
2018-09-22T23:51:55.842Z,1006.15
2018-09-22T23:56:22.055Z,1006.13
